TAM3939 SBRJ-SBSP
Flight info
| Callsign | TAM3939 |
|---|---|
| Flight time | 0h 42m |
| Altitude | 30000 |
| Route | NAXOP UZ45 IBDAL |
| Aircraft | A319/M-SDE3FGHIRWY/LB1 |
Departure
| Time | 2026-05-04 20:49 |
|---|---|
| Airport | Santos Dumont Airport (SBRJ) |
Arrival
| Time | 2026-05-04 21:31 |
|---|---|
| Airport | Congonhas–Deputado Freitas Nobre Airport (SBSP) |
| Time | Latitude | Longitude | Altitude | Speed | Heading |
|---|---|---|---|---|---|
| 2026-05-04 20:31 | -22.91245 | -43.16583 | 22 ft | 0 kts | 267° |
| 2026-05-04 20:41 | -22.91245 | -43.16580 | 22 ft | 3 kts | 268° |
| 2026-05-04 20:41 | -22.91245 | -43.16552 | 22 ft | 4 kts | 275° |
| 2026-05-04 20:42 | -22.91251 | -43.16524 | 22 ft | 4 kts | 301° |
| 2026-05-04 20:42 | -22.91266 | -43.16510 | 22 ft | 1 kts | 356° |
| 2026-05-04 20:44 | -22.91251 | -43.16510 | 23 ft | 5 kts | 357° |
| 2026-05-04 20:44 | -22.91207 | -43.16513 | 25 ft | 7 kts | 356° |
| 2026-05-04 20:44 | -22.91165 | -43.16516 | 25 ft | 6 kts | 357° |
| 2026-05-04 20:45 | -22.91126 | -43.16519 | 24 ft | 6 kts | 352° |
| 2026-05-04 20:45 | -22.91079 | -43.16533 | 22 ft | 8 kts | 350° |
| 2026-05-04 20:45 | -22.91017 | -43.16538 | 22 ft | 10 kts | 356° |
| 2026-05-04 20:45 | -22.90939 | -43.16544 | 22 ft | 12 kts | 355° |
| 2026-05-04 20:46 | -22.90855 | -43.16550 | 22 ft | 13 kts | 356° |
| 2026-05-04 20:46 | -22.90755 | -43.16542 | 24 ft | 13 kts | 354° |
| 2026-05-04 20:46 | -22.90682 | -43.16547 | 24 ft | 11 kts | 356° |
| 2026-05-04 20:46 | -22.90598 | -43.16552 | 24 ft | 12 kts | 357° |
| 2026-05-04 20:47 | -22.90513 | -43.16556 | 22 ft | 9 kts | 7° |
| 2026-05-04 20:47 | -22.90497 | -43.16494 | 22 ft | 11 kts | 87° |
| 2026-05-04 20:47 | -22.90492 | -43.16407 | 24 ft | 13 kts | 84° |
| 2026-05-04 20:47 | -22.90469 | -43.16327 | 24 ft | 5 kts | 109° |
| 2026-05-04 20:48 | -22.90492 | -43.16319 | 24 ft | 0 kts | 179° |
| 2026-05-04 20:48 | -22.90783 | -43.16300 | 25 ft | 91 kts | 176° |
| 2026-05-04 20:49 | -22.91694 | -43.16234 | 182 ft | 152 kts | 174° |
| 2026-05-04 20:49 | -22.92712 | -43.16038 | 865 ft | 149 kts | 150° |
| 2026-05-04 20:49 | -22.93468 | -43.15306 | 1407 ft | 146 kts | 129° |
| 2026-05-04 20:49 | -22.94164 | -43.14498 | 1862 ft | 153 kts | 128° |
| 2026-05-04 20:50 | -22.94939 | -43.13595 | 2110 ft | 176 kts | 127° |
| 2026-05-04 20:50 | -22.95904 | -43.12626 | 2444 ft | 201 kts | 132° |
| 2026-05-04 20:50 | -22.97049 | -43.11581 | 2815 ft | 230 kts | 143° |
| 2026-05-04 20:50 | -22.98679 | -43.11056 | 3226 ft | 263 kts | 180° |
| 2026-05-04 20:51 | -23.00445 | -43.11719 | 3893 ft | 279 kts | 220° |
| 2026-05-04 20:51 | -23.01565 | -43.13377 | 4884 ft | 270 kts | 252° |
| 2026-05-04 20:51 | -23.02090 | -43.15276 | 6001 ft | 266 kts | 259° |
| 2026-05-04 20:51 | -23.02471 | -43.17234 | 7060 ft | 264 kts | 256° |
| 2026-05-04 20:52 | -23.02998 | -43.19185 | 7909 ft | 270 kts | 252° |
| 2026-05-04 20:52 | -23.03604 | -43.21093 | 8823 ft | 273 kts | 250° |
| 2026-05-04 20:52 | -23.04273 | -43.23024 | 9749 ft | 275 kts | 249° |
| 2026-05-04 20:52 | -23.04980 | -43.24982 | 10450 ft | 285 kts | 248° |
| 2026-05-04 20:53 | -23.05741 | -43.27058 | 10812 ft | 304 kts | 248° |
| 2026-05-04 20:53 | -23.06539 | -43.29226 | 11399 ft | 313 kts | 248° |
| 2026-05-04 20:53 | -23.07355 | -43.31440 | 12116 ft | 317 kts | 248° |
| 2026-05-04 20:53 | -23.08175 | -43.33670 | 12782 ft | 322 kts | 248° |
| 2026-05-04 20:54 | -23.09008 | -43.35942 | 13535 ft | 325 kts | 248° |
| 2026-05-04 20:54 | -23.09850 | -43.38240 | 14243 ft | 327 kts | 248° |
| 2026-05-04 20:54 | -23.10682 | -43.40526 | 14937 ft | 328 kts | 249° |
| 2026-05-04 20:54 | -23.11522 | -43.42845 | 15554 ft | 331 kts | 249° |
| 2026-05-04 20:55 | -23.12358 | -43.45154 | 16149 ft | 334 kts | 249° |
| 2026-05-04 20:55 | -23.13213 | -43.47510 | 16798 ft | 336 kts | 249° |
| 2026-05-04 20:55 | -23.14078 | -43.49891 | 17431 ft | 339 kts | 249° |
| 2026-05-04 20:55 | -23.14950 | -43.52294 | 18050 ft | 342 kts | 249° |
| 2026-05-04 20:56 | -23.15821 | -43.54690 | 18616 ft | 344 kts | 250° |
| 2026-05-04 20:56 | -23.16710 | -43.57134 | 19149 ft | 347 kts | 249° |
| 2026-05-04 20:56 | -23.17594 | -43.59567 | 19685 ft | 349 kts | 249° |
| 2026-05-04 20:56 | -23.18489 | -43.62039 | 20219 ft | 352 kts | 249° |
| 2026-05-04 20:57 | -23.19384 | -43.64510 | 20754 ft | 355 kts | 249° |
| 2026-05-04 20:57 | -23.20296 | -43.67031 | 21291 ft | 357 kts | 249° |
| 2026-05-04 20:57 | -23.21204 | -43.69537 | 21812 ft | 360 kts | 249° |
| 2026-05-04 20:57 | -23.22126 | -43.72077 | 22341 ft | 363 kts | 249° |
| 2026-05-04 20:58 | -23.23057 | -43.74647 | 22857 ft | 366 kts | 249° |
| 2026-05-04 20:58 | -23.23992 | -43.77235 | 23380 ft | 368 kts | 249° |
| 2026-05-04 20:58 | -23.24920 | -43.79809 | 23870 ft | 371 kts | 249° |
| 2026-05-04 20:58 | -23.25865 | -43.82433 | 24319 ft | 373 kts | 249° |
| 2026-05-04 20:59 | -23.26819 | -43.85082 | 24768 ft | 376 kts | 249° |
| 2026-05-04 20:59 | -23.27778 | -43.87742 | 25213 ft | 378 kts | 249° |
| 2026-05-04 20:59 | -23.28739 | -43.90409 | 25647 ft | 380 kts | 249° |
| 2026-05-04 20:59 | -23.29704 | -43.93095 | 26092 ft | 382 kts | 249° |
| 2026-05-04 21:00 | -23.30668 | -43.95786 | 26524 ft | 383 kts | 249° |
| 2026-05-04 21:00 | -23.31641 | -43.98495 | 26952 ft | 385 kts | 249° |
| 2026-05-04 21:00 | -23.32610 | -44.01191 | 27370 ft | 387 kts | 249° |
| 2026-05-04 21:00 | -23.33598 | -44.03937 | 27787 ft | 389 kts | 249° |
| 2026-05-04 21:01 | -23.34591 | -44.06697 | 28188 ft | 391 kts | 249° |
| 2026-05-04 21:01 | -23.35571 | -44.09429 | 28578 ft | 393 kts | 249° |
| 2026-05-04 21:01 | -23.36571 | -44.12221 | 28980 ft | 395 kts | 249° |
| 2026-05-04 21:01 | -23.37571 | -44.15016 | 29378 ft | 397 kts | 249° |
| 2026-05-04 21:02 | -23.38565 | -44.17803 | 29772 ft | 399 kts | 249° |
| 2026-05-04 21:02 | -23.39574 | -44.20625 | 30102 ft | 401 kts | 249° |
| 2026-05-04 21:02 | -23.41628 | -44.26360 | 30152 ft | 416 kts | 249° |
| 2026-05-04 21:03 | -23.43766 | -44.32332 | 30148 ft | 427 kts | 249° |
| 2026-05-04 21:03 | -23.45924 | -44.38388 | 30149 ft | 428 kts | 249° |
| 2026-05-04 21:04 | -23.48064 | -44.44402 | 30149 ft | 428 kts | 249° |
| 2026-05-04 21:04 | -23.50210 | -44.50438 | 30150 ft | 427 kts | 249° |
| 2026-05-04 21:05 | -23.52003 | -44.55488 | 30150 ft | 427 kts | 249° |
| 2026-05-04 21:05 | -23.54480 | -44.62489 | 30146 ft | 427 kts | 249° |
| 2026-05-04 21:06 | -23.56621 | -44.68545 | 30156 ft | 426 kts | 249° |
| 2026-05-04 21:06 | -23.58760 | -44.74574 | 30151 ft | 426 kts | 249° |
| 2026-05-04 21:07 | -23.60875 | -44.80560 | 30146 ft | 426 kts | 249° |
| 2026-05-04 21:07 | -23.63002 | -44.86594 | 30149 ft | 425 kts | 249° |
| 2026-05-04 21:08 | -23.65118 | -44.92615 | 30154 ft | 425 kts | 249° |
| 2026-05-04 21:08 | -23.67242 | -44.98653 | 30147 ft | 425 kts | 249° |
| 2026-05-04 21:09 | -23.69362 | -45.04672 | 30159 ft | 425 kts | 249° |
| 2026-05-04 21:09 | -23.71464 | -45.10652 | 30162 ft | 425 kts | 249° |
| 2026-05-04 21:10 | -23.73569 | -45.16681 | 30151 ft | 424 kts | 249° |
| 2026-05-04 21:10 | -23.75556 | -45.22752 | 30137 ft | 424 kts | 256° |
| 2026-05-04 21:11 | -23.76273 | -45.29147 | 30139 ft | 425 kts | 264° |
| 2026-05-04 21:11 | -23.76741 | -45.35576 | 30138 ft | 425 kts | 264° |
| 2026-05-04 21:12 | -23.77220 | -45.42003 | 30140 ft | 425 kts | 264° |
| 2026-05-04 21:12 | -23.77694 | -45.48453 | 30134 ft | 425 kts | 264° |
| 2026-05-04 21:13 | -23.78159 | -45.54837 | 30132 ft | 425 kts | 264° |
| 2026-05-04 21:13 | -23.78626 | -45.61276 | 30132 ft | 425 kts | 264° |
| 2026-05-04 21:14 | -23.79099 | -45.67718 | 30129 ft | 426 kts | 264° |
| 2026-05-04 21:14 | -23.79565 | -45.74165 | 29964 ft | 425 kts | 264° |
| 2026-05-04 21:15 | -23.79796 | -45.77404 | 28821 ft | 433 kts | 264° |
| 2026-05-04 21:15 | -23.80033 | -45.80724 | 27615 ft | 442 kts | 264° |
| 2026-05-04 21:15 | -23.80272 | -45.84102 | 26446 ft | 450 kts | 264° |
| 2026-05-04 21:15 | -23.80514 | -45.87537 | 25301 ft | 456 kts | 264° |
| 2026-05-04 21:16 | -23.80758 | -45.91012 | 24189 ft | 461 kts | 264° |
| 2026-05-04 21:16 | -23.81002 | -45.94514 | 23156 ft | 462 kts | 265° |
| 2026-05-04 21:16 | -23.81240 | -45.97934 | 22336 ft | 452 kts | 265° |
| 2026-05-04 21:16 | -23.81477 | -46.01326 | 21512 ft | 443 kts | 265° |
| 2026-05-04 21:17 | -23.81711 | -46.04655 | 20706 ft | 435 kts | 265° |
| 2026-05-04 21:17 | -23.81942 | -46.07909 | 19921 ft | 427 kts | 265° |
| 2026-05-04 21:17 | -23.82168 | -46.11121 | 19131 ft | 420 kts | 265° |
| 2026-05-04 21:17 | -23.82385 | -46.14278 | 18357 ft | 414 kts | 265° |
| 2026-05-04 21:18 | -23.82597 | -46.17390 | 17562 ft | 408 kts | 265° |
| 2026-05-04 21:18 | -23.82808 | -46.20456 | 16877 ft | 401 kts | 265° |
| 2026-05-04 21:18 | -23.83017 | -46.23478 | 16214 ft | 399 kts | 265° |
| 2026-05-04 21:18 | -23.83225 | -46.26496 | 15564 ft | 398 kts | 265° |
| 2026-05-04 21:19 | -23.83434 | -46.29519 | 14914 ft | 399 kts | 265° |
| 2026-05-04 21:19 | -23.83643 | -46.32540 | 14261 ft | 399 kts | 265° |
| 2026-05-04 21:19 | -23.83849 | -46.35561 | 13560 ft | 398 kts | 265° |
| 2026-05-04 21:19 | -23.84050 | -46.38576 | 12861 ft | 397 kts | 265° |
| 2026-05-04 21:20 | -23.84248 | -46.41537 | 12169 ft | 395 kts | 265° |
| 2026-05-04 21:20 | -23.84449 | -46.44520 | 11451 ft | 393 kts | 265° |
| 2026-05-04 21:20 | -23.84648 | -46.47467 | 11149 ft | 381 kts | 265° |
| 2026-05-04 21:20 | -23.84837 | -46.50282 | 11033 ft | 363 kts | 265° |
| 2026-05-04 21:21 | -23.85015 | -46.52968 | 10918 ft | 347 kts | 265° |
| 2026-05-04 21:21 | -23.85183 | -46.55535 | 10803 ft | 333 kts | 265° |
| 2026-05-04 21:21 | -23.85342 | -46.58005 | 10687 ft | 320 kts | 266° |
| 2026-05-04 21:21 | -23.85190 | -46.60387 | 10573 ft | 310 kts | 282° |
| 2026-05-04 21:22 | -23.84396 | -46.62529 | 10446 ft | 301 kts | 300° |
| 2026-05-04 21:22 | -23.83094 | -46.64256 | 10274 ft | 293 kts | 316° |
| 2026-05-04 21:22 | -23.81433 | -46.65505 | 10155 ft | 290 kts | 326° |
| 2026-05-04 21:22 | -23.79715 | -46.66678 | 9734 ft | 290 kts | 325° |
| 2026-05-04 21:23 | -23.78031 | -46.67850 | 9313 ft | 287 kts | 325° |
| 2026-05-04 21:23 | -23.76357 | -46.69019 | 9195 ft | 283 kts | 325° |
| 2026-05-04 21:23 | -23.74705 | -46.70173 | 9214 ft | 282 kts | 325° |
| 2026-05-04 21:23 | -23.73045 | -46.71332 | 9218 ft | 282 kts | 325° |
| 2026-05-04 21:24 | -23.71390 | -46.72487 | 9160 ft | 284 kts | 325° |
| 2026-05-04 21:24 | -23.69721 | -46.73651 | 8546 ft | 291 kts | 325° |
| 2026-05-04 21:24 | -23.68021 | -46.74831 | 8107 ft | 285 kts | 325° |
| 2026-05-04 21:24 | -23.66371 | -46.75973 | 7806 ft | 274 kts | 325° |
| 2026-05-04 21:25 | -23.64805 | -46.77055 | 7651 ft | 259 kts | 325° |
| 2026-05-04 21:25 | -23.63319 | -46.78080 | 7500 ft | 247 kts | 325° |
| 2026-05-04 21:25 | -23.61857 | -46.79091 | 7013 ft | 250 kts | 326° |
| 2026-05-04 21:25 | -23.60383 | -46.80110 | 6561 ft | 251 kts | 326° |
| 2026-05-04 21:26 | -23.58939 | -46.81110 | 6419 ft | 238 kts | 326° |
| 2026-05-04 21:26 | -23.58022 | -46.81715 | 6363 ft | 227 kts | 332° |
| 2026-05-04 21:26 | -23.56535 | -46.81933 | 6269 ft | 215 kts | 13° |
| 2026-05-04 21:26 | -23.55307 | -46.81038 | 6082 ft | 216 kts | 45° |
| 2026-05-04 21:27 | -23.54435 | -46.79732 | 5800 ft | 212 kts | 55° |
| 2026-05-04 21:27 | -23.53692 | -46.78392 | 5556 ft | 201 kts | 57° |
| 2026-05-04 21:27 | -23.53004 | -46.77108 | 5335 ft | 192 kts | 57° |
| 2026-05-04 21:27 | -23.52130 | -46.75505 | 5076 ft | 179 kts | 57° |
| 2026-05-04 21:28 | -23.51771 | -46.74677 | 4923 ft | 182 kts | 74° |
| 2026-05-04 21:28 | -23.51933 | -46.73345 | 4795 ft | 182 kts | 118° |
| 2026-05-04 21:28 | -23.52852 | -46.72424 | 4637 ft | 182 kts | 149° |
| 2026-05-04 21:28 | -23.53924 | -46.71694 | 4412 ft | 181 kts | 147° |
| 2026-05-04 21:29 | -23.54970 | -46.70970 | 4189 ft | 173 kts | 147° |
| 2026-05-04 21:29 | -23.55955 | -46.70290 | 3983 ft | 161 kts | 147° |
| 2026-05-04 21:29 | -23.56848 | -46.69672 | 3819 ft | 145 kts | 146° |
| 2026-05-04 21:29 | -23.57667 | -46.69106 | 3646 ft | 138 kts | 147° |
| 2026-05-04 21:30 | -23.58463 | -46.68556 | 3479 ft | 133 kts | 147° |
| 2026-05-04 21:30 | -23.59254 | -46.68009 | 3293 ft | 133 kts | 148° |
| 2026-05-04 21:30 | -23.60026 | -46.67475 | 3120 ft | 130 kts | 149° |
| 2026-05-04 21:30 | -23.60780 | -46.66957 | 2928 ft | 129 kts | 149° |
| 2026-05-04 21:31 | -23.62282 | -46.65913 | 2606 ft | 125 kts | 150° |
| 2026-05-04 21:31 | -23.62881 | -46.65498 | 2608 ft | 67 kts | 149° |
| 2026-05-04 21:31 | -23.63086 | -46.65370 | 2610 ft | 10 kts | 170° |
| 2026-05-04 21:32 | -23.63172 | -46.65393 | 2605 ft | 15 kts | 226° |
| 2026-05-04 21:32 | -23.63127 | -46.65472 | 2602 ft | 9 kts | 327° |
| 2026-05-04 21:32 | -23.63060 | -46.65514 | 2602 ft | 14 kts | 341° |
| 2026-05-04 21:32 | -23.62958 | -46.65552 | 2603 ft | 18 kts | 326° |
| 2026-05-04 21:33 | -23.62862 | -46.65619 | 2603 ft | 15 kts | 329° |
| 2026-05-04 21:33 | -23.62776 | -46.65679 | 2603 ft | 15 kts | 328° |
| 2026-05-04 21:33 | -23.62699 | -46.65732 | 2602 ft | 11 kts | 328° |
| 2026-05-04 21:33 | -23.62678 | -46.65753 | 2602 ft | 2 kts | 284° |
| 2026-05-04 21:34 | -23.62688 | -46.65771 | 2601 ft | 5 kts | 237° |
| 2026-05-04 21:34 | -23.62700 | -46.65792 | 2601 ft | 0 kts | 238° |
| 2026-05-04 21:35 | -23.62707 | -46.65804 | 2601 ft | 3 kts | 237° |
| 2026-05-04 21:35 | -23.62717 | -46.65820 | 2601 ft | 2 kts | 237° |
| 2026-05-04 21:35 | -23.62720 | -46.65826 | 2601 ft | 0 kts | 237° |